Time;durP1;ratioP1;P1;durP2;ratioP2;P2;SDS_P1;SDS_P2;PMS_P1;PMS_P2;Temp;Humidity;BMP_temperature;BMP_pressure;BME280_temperature;BME280_humidity;BME280_pressure;Samples;Min_cycle;Max_cycle;Signal;HPM_P1;HPM_P2
2023/12/06 00:01:29;;;;;;;46.22;31.48;;;;;;;1.66;100.00;101011.63;5070441;28;20048;-61
2023/12/06 00:03:54;;;;;;;43.90;32.65;;;;;;;1.67;100.00;101009.88;5069741;28;20019;-61
2023/12/06 00:06:20;;;;;;;45.83;31.75;;;;;;;1.69;100.00;101009.81;5066826;28;20395;-61
2023/12/06 00:08:45;;;;;;;44.70;31.73;;;;;;;1.70;100.00;101007.16;5062882;28;20029;-61
2023/12/06 00:11:11;;;;;;;48.35;33.53;;;;;;;1.69;100.00;101010.66;5066628;28;20466;-61
2023/12/06 00:13:36;;;;;;;44.72;32.13;;;;;;;1.69;100.00;101005.44;5064566;28;20060;-61
2023/12/06 00:16:01;;;;;;;45.08;32.65;;;;;;;1.71;100.00;101016.69;5065415;28;20020;-61
2023/12/06 00:18:27;;;;;;;41.83;31.52;;;;;;;1.74;100.00;101018.38;5070294;28;20038;-61
2023/12/06 00:20:53;;;;;;;45.22;33.17;;;;;;;1.72;100.00;101020.19;5066832;28;20611;-61
2023/12/06 00:23:18;;;;;;;45.13;33.25;;;;;;;1.70;100.00;101030.72;5067270;28;20029;-61
2023/12/06 00:25:43;;;;;;;42.95;31.42;;;;;;;1.71;100.00;101029.78;5064324;28;20029;-61
2023/12/06 00:28:08;;;;;;;45.97;31.80;;;;;;;1.72;100.00;101030.66;5069206;28;20017;-61
2023/12/06 00:30:34;;;;;;;45.33;31.58;;;;;;;1.70;100.00;101024.59;5065022;28;20041;-61
2023/12/06 00:32:59;;;;;;;45.72;31.77;;;;;;;1.73;100.00;101030.59;5069121;28;20393;-61
2023/12/06 00:35:24;;;;;;;45.47;31.50;;;;;;;1.75;100.00;101038.38;5069640;28;20033;-61
2023/12/06 00:37:49;;;;;;;44.78;31.60;;;;;;;1.74;100.00;101037.53;5068927;28;20474;-61
2023/12/06 00:40:15;;;;;;;40.97;31.45;;;;;;;1.75;100.00;101046.25;5070756;28;20025;-61
2023/12/06 00:42:40;;;;;;;44.55;31.42;;;;;;;1.74;100.00;101036.69;5066004;28;20025;-60
2023/12/06 00:45:06;;;;;;;41.63;31.10;;;;;;;1.75;100.00;101047.13;5064270;28;20021;-61
2023/12/06 00:47:31;;;;;;;44.33;31.25;;;;;;;1.78;100.00;101052.25;5066459;28;20068;-61
2023/12/06 00:49:56;;;;;;;43.08;31.17;;;;;;;1.77;100.00;101052.31;5062001;28;20111;-61
2023/12/06 00:52:22;;;;;;;42.42;31.42;;;;;;;1.79;100.00;101053.09;5064100;28;20021;-61
2023/12/06 00:54:48;;;;;;;40.83;30.15;;;;;;;1.80;100.00;101052.19;5069097;28;20036;-61
2023/12/06 00:57:14;;;;;;;42.70;30.90;;;;;;;1.81;100.00;101059.13;5071996;28;20028;-61
2023/12/06 00:59:40;;;;;;;42.45;30.27;;;;;;;1.80;100.00;101060.91;5068955;28;20050;-61
2023/12/06 01:02:05;;;;;;;38.30;28.17;;;;;;;1.78;100.00;101067.09;5071806;28;20061;-61
2023/12/06 01:04:30;;;;;;;40.15;29.27;;;;;;;1.79;100.00;101066.19;5070879;28;20489;-61
2023/12/06 01:06:56;;;;;;;37.40;27.70;;;;;;;1.79;100.00;101066.19;5063286;28;20108;-61
2023/12/06 01:09:21;;;;;;;37.88;28.77;;;;;;;1.78;100.00;101072.31;5068647;28;20028;-61
2023/12/06 01:11:46;;;;;;;37.08;27.85;;;;;;;1.78;100.00;101075.81;5069657;28;20016;-61
2023/12/06 01:14:11;;;;;;;35.80;26.80;;;;;;;1.80;100.00;101073.13;5066090;28;20394;-61
2023/12/06 01:16:37;;;;;;;38.65;28.05;;;;;;;1.80;100.00;101076.59;5071918;28;20024;-61
2023/12/06 01:19:02;;;;;;;38.75;28.08;;;;;;;1.80;100.00;101081.00;5072908;28;20119;-61
2023/12/06 01:21:27;;;;;;;36.42;27.25;;;;;;;1.81;100.00;101085.31;5065317;28;20021;-61
2023/12/06 01:23:54;;;;;;;36.38;26.25;;;;;;;1.81;100.00;101083.53;5069670;28;20416;-61
2023/12/06 01:26:19;;;;;;;35.38;26.40;;;;;;;1.82;100.00;101089.66;5068922;28;20033;-61
2023/12/06 01:28:44;;;;;;;34.20;27.10;;;;;;;1.83;100.00;101093.97;5066192;28;20354;-61
2023/12/06 01:31:10;;;;;;;33.60;25.55;;;;;;;1.83;100.00;101099.19;5068715;28;20089;-61
2023/12/06 01:33:35;;;;;;;32.95;25.73;;;;;;;1.84;100.00;101098.28;5071909;28;20031;-61
2023/12/06 01:36:00;;;;;;;37.92;26.23;;;;;;;1.83;100.00;101099.19;5072391;28;20036;-60
2023/12/06 01:38:25;;;;;;;33.95;25.90;;;;;;;1.83;100.00;101097.44;5069571;28;20405;-61
2023/12/06 01:40:51;;;;;;;33.17;24.77;;;;;;;1.85;100.00;101105.25;5070060;28;20461;-61
2023/12/06 01:43:16;;;;;;;32.90;26.10;;;;;;;1.83;100.00;101105.31;5073094;28;20043;-61
2023/12/06 01:45:41;;;;;;;32.97;24.92;;;;;;;1.85;100.00;101108.72;5068713;28;20074;-61
2023/12/06 01:48:08;;;;;;;32.80;24.92;;;;;;;1.84;100.00;101114.00;5069534;28;20116;-61
2023/12/06 01:50:37;;;;;;;32.28;24.65;;;;;;;1.83;100.00;101118.41;5069174;28;20033;-61
2023/12/06 01:53:04;;;;;;;30.60;23.58;;;;;;;1.84;100.00;101114.84;5069991;28;20024;-61
2023/12/06 01:55:30;;;;;;;29.77;22.58;;;;;;;1.85;100.00;101124.44;5070137;28;20025;-61
2023/12/06 01:57:56;;;;;;;29.58;23.42;;;;;;;1.84;100.00;101122.72;5071288;28;20045;-61
2023/12/06 02:00:22;;;;;;;31.98;23.20;;;;;;;1.85;100.00;101116.56;5066461;28;20063;-61
2023/12/06 02:02:48;;;;;;;30.10;23.52;;;;;;;1.85;100.00;101120.97;5068099;28;20064;-61
2023/12/06 02:05:13;;;;;;;31.27;23.17;;;;;;;1.84;100.00;101120.09;5064029;28;20070;-60
2023/12/06 02:07:40;;;;;;;31.33;23.88;;;;;;;1.84;100.00;101122.72;5067335;28;20021;-61
2023/12/06 02:10:06;;;;;;;30.05;23.02;;;;;;;1.83;100.00;101126.25;5066122;28;20063;-61
2023/12/06 02:12:31;;;;;;;27.67;22.65;;;;;;;1.85;100.00;101136.69;5068030;28;20032;-61
2023/12/06 02:14:59;;;;;;;28.60;22.00;;;;;;;1.84;100.00;101133.19;5071919;28;20425;-60
2023/12/06 02:17:25;;;;;;;26.77;21.52;;;;;;;1.84;100.00;101146.28;5067441;28;20033;-61
2023/12/06 02:19:53;;;;;;;30.50;22.67;;;;;;;1.83;100.00;101141.97;5072199;28;20091;-60
2023/12/06 02:22:20;;;;;;;27.70;21.42;;;;;;;1.84;100.00;101137.59;5072232;28;20064;-61
2023/12/06 02:24:48;;;;;;;25.83;21.05;;;;;;;1.85;100.00;101129.66;5069201;28;20039;-61
2023/12/06 02:27:15;;;;;;;27.13;21.60;;;;;;;1.87;100.00;101134.84;5072190;28;20032;-61
2023/12/06 02:29:40;;;;;;;25.60;21.48;;;;;;;1.87;100.00;101126.16;5069132;28;20036;-61
2023/12/06 02:32:06;;;;;;;28.35;20.88;;;;;;;1.88;100.00;101128.69;5072651;28;20019;-61
2023/12/06 02:34:32;;;;;;;29.02;20.95;;;;;;;1.91;100.00;101143.47;5068345;28;20025;-60
2023/12/06 02:37:03;;;;;;;27.83;20.10;;;;;;;1.91;100.00;101136.44;5067953;28;20063;-61
2023/12/06 02:39:39;;;;;;;25.63;20.00;;;;;;;1.93;100.00;101139.88;5063675;28;20063;-60
2023/12/06 02:42:05;;;;;;;24.00;19.40;;;;;;;1.91;100.00;101139.06;5066724;28;20024;-61
2023/12/06 02:44:30;;;;;;;23.35;18.77;;;;;;;1.93;100.00;101137.25;5068470;28;20039;-61
2023/12/06 02:46:56;;;;;;;28.27;20.45;;;;;;;1.94;100.00;101138.13;5069090;28;20049;-61
2023/12/06 02:49:21;;;;;;;24.60;19.90;;;;;;;1.97;100.00;101135.38;5064124;28;20036;-61
2023/12/06 02:51:46;;;;;;;23.23;19.20;;;;;;;1.97;100.00;101141.47;5067615;28;20028;-61
2023/12/06 02:54:12;;;;;;;26.17;19.70;;;;;;;1.99;100.00;101141.41;5068419;28;20024;-61
2023/12/06 02:56:37;;;;;;;25.75;20.35;;;;;;;1.99;100.00;101149.28;5066960;28;20025;-61
2023/12/06 02:59:02;;;;;;;23.90;19.90;;;;;;;2.00;100.00;101148.38;5065418;28;20108;-61
2023/12/06 03:01:28;;;;;;;24.83;19.50;;;;;;;2.01;100.00;101148.28;5066802;28;20473;-61
2023/12/06 03:03:53;;;;;;;28.10;20.52;;;;;;;2.05;100.00;101146.44;5064210;28;20035;-61
2023/12/06 03:06:18;;;;;;;25.73;19.92;;;;;;;2.11;100.00;101140.97;5065110;28;20426;-61
2023/12/06 03:08:43;;;;;;;23.13;19.42;;;;;;;2.15;100.00;101142.56;5065823;28;20036;-61
2023/12/06 03:11:09;;;;;;;22.98;18.25;;;;;;;2.21;100.00;101142.34;5066625;28;20501;-61
2023/12/06 03:13:34;;;;;;;23.48;18.05;;;;;;;2.28;100.00;101131.63;5071899;28;20116;-61
2023/12/06 03:15:59;;;;;;;21.85;18.02;;;;;;;2.31;100.00;101132.34;5070196;28;20032;-61
2023/12/06 03:18:26;;;;;;;22.15;17.38;;;;;;;2.36;100.00;101129.56;5063147;28;20028;-61
2023/12/06 03:20:51;;;;;;;20.83;17.08;;;;;;;2.39;100.00;101147.81;5066082;28;20484;-61
2023/12/06 03:23:17;;;;;;;21.20;17.50;;;;;;;2.45;100.00;101154.56;5063944;28;20102;-61
2023/12/06 03:25:42;;;;;;;21.77;16.52;;;;;;;2.48;100.00;101147.47;5067493;28;20024;-61
2023/12/06 03:28:07;;;;;;;20.70;16.02;;;;;;;2.51;100.00;101149.97;5063033;28;20031;-61
2023/12/06 03:30:32;;;;;;;21.38;16.83;;;;;;;2.55;100.00;101153.34;5067478;28;20394;-61
2023/12/06 03:32:58;;;;;;;19.98;16.60;;;;;;;2.56;100.00;101161.13;5063480;28;20024;-61
2023/12/06 03:35:23;;;;;;;19.67;16.98;;;;;;;2.59;100.00;101163.63;5066668;28;20024;-61
2023/12/06 03:37:48;;;;;;;21.63;16.23;;;;;;;2.62;100.00;101165.28;5064183;28;20071;-62
2023/12/06 03:40:13;;;;;;;19.50;16.17;;;;;;;2.64;100.00;101167.88;5065969;28;20112;-61
2023/12/06 03:42:39;;;;;;;19.02;15.93;;;;;;;2.67;100.00;101163.34;5062894;28;20021;-61
2023/12/06 03:45:05;;;;;;;20.67;16.02;;;;;;;2.70;100.00;101165.84;5066121;28;20489;-61
2023/12/06 03:47:30;;;;;;;20.13;16.65;;;;;;;2.71;100.00;101164.91;5065403;28;20086;-61
2023/12/06 03:49:55;;;;;;;21.80;15.25;;;;;;;2.75;100.00;101160.44;5069375;28;20107;-61
2023/12/06 03:52:21;;;;;;;20.15;16.02;;;;;;;2.75;100.00;101169.16;5064944;28;20094;-61
2023/12/06 03:54:47;;;;;;;19.77;15.68;;;;;;;2.76;100.00;101173.50;5071694;28;20436;-61
2023/12/06 03:57:12;;;;;;;20.73;15.60;;;;;;;2.77;100.00;101171.72;5063722;28;20055;-61
2023/12/06 03:59:38;;;;;;;22.10;16.63;;;;;;;2.79;100.00;101175.13;5066720;28;20031;-61
2023/12/06 04:02:03;;;;;;;20.73;16.15;;;;;;;2.83;100.00;101176.75;5064001;28;20236;-61
2023/12/06 04:04:28;;;;;;;20.98;16.75;;;;;;;2.82;100.00;101174.16;5066278;28;20040;-61
2023/12/06 04:06:54;;;;;;;19.60;15.50;;;;;;;2.86;100.00;101181.84;5071224;28;20074;-61
2023/12/06 04:09:19;;;;;;;20.30;16.20;;;;;;;2.86;100.00;101176.59;5065949;28;20024;-61
2023/12/06 04:11:44;;;;;;;20.40;15.77;;;;;;;2.87;100.00;101177.47;5063408;28;20074;-61
2023/12/06 04:14:10;;;;;;;19.27;16.05;;;;;;;2.90;100.00;101187.84;5066130;28;20101;-61
2023/12/06 04:16:38;;;;;;;19.50;16.33;;;;;;;2.93;100.00;101179.81;5066880;28;20029;-61
2023/12/06 04:19:03;;;;;;;20.65;16.23;;;;;;;2.94;100.00;101186.78;5066959;28;20482;-62
2023/12/06 04:21:29;;;;;;;23.50;16.45;;;;;;;2.93;100.00;101188.56;5063941;28;20046;-62
2023/12/06 04:23:54;;;;;;;18.83;15.95;;;;;;;2.95;100.00;101193.78;5066041;28;20081;-61
2023/12/06 04:26:20;;;;;;;21.00;16.02;;;;;;;2.96;100.00;101191.09;5063608;28;20111;-62
2023/12/06 04:28:46;;;;;;;19.10;15.65;;;;;;;2.96;100.00;101198.09;5066972;28;20032;-61
2023/12/06 04:31:11;;;;;;;21.23;16.80;;;;;;;3.00;100.00;101198.81;5069862;28;20032;-61
2023/12/06 04:33:36;;;;;;;21.98;17.33;;;;;;;2.97;100.00;101192.78;5070884;28;20042;-61
2023/12/06 04:36:01;;;;;;;20.33;16.23;;;;;;;2.96;100.00;101198.97;5068113;28;20033;-61
2023/12/06 04:38:27;;;;;;;21.33;16.15;;;;;;;2.93;100.00;101200.81;5073018;28;20085;-62
2023/12/06 04:40:52;;;;;;;20.85;16.92;;;;;;;2.90;100.00;101195.72;5074604;28;20493;-62
2023/12/06 04:43:17;;;;;;;22.17;17.55;;;;;;;2.89;100.00;101196.63;5073675;28;20035;-61
2023/12/06 04:45:43;;;;;;;22.38;17.73;;;;;;;2.83;100.00;101202.97;5067448;28;20021;-61
2023/12/06 04:48:09;;;;;;;21.33;17.63;;;;;;;2.81;100.00;101211.81;5069922;28;20059;-61
2023/12/06 04:50:34;;;;;;;26.40;17.88;;;;;;;2.78;100.00;101208.38;5068767;28;20044;-61
2023/12/06 04:53:00;;;;;;;24.70;18.65;;;;;;;2.76;100.00;101214.59;5068052;28;20502;-61
2023/12/06 04:55:25;;;;;;;22.75;18.60;;;;;;;2.75;100.00;101210.28;5066393;28;20033;-61
2023/12/06 04:57:50;;;;;;;22.67;18.48;;;;;;;2.72;100.00;101211.22;5069498;28;20077;-61
2023/12/06 05:00:17;;;;;;;26.75;19.55;;;;;;;2.70;100.00;101222.72;5070495;28;20034;-61
2023/12/06 05:02:42;;;;;;;24.58;19.05;;;;;;;2.69;100.00;101226.25;5070213;28;20378;-61
2023/12/06 05:05:07;;;;;;;21.95;19.00;;;;;;;2.69;100.00;101226.25;5073526;28;20027;-61
2023/12/06 05:07:33;;;;;;;26.05;19.42;;;;;;;2.68;100.00;101220.16;5072373;28;20025;-61
2023/12/06 05:09:58;;;;;;;25.38;18.88;;;;;;;2.67;100.00;101226.28;5072130;28;20028;-61
2023/12/06 05:12:23;;;;;;;23.90;19.23;;;;;;;2.65;100.00;101230.75;5070940;28;20489;-61
2023/12/06 05:14:49;;;;;;;25.27;19.52;;;;;;;2.64;100.00;101230.81;5068389;28;20116;-61
2023/12/06 05:17:14;;;;;;;27.83;20.73;;;;;;;2.64;100.00;101236.91;5069852;28;20024;-61
2023/12/06 05:19:39;;;;;;;26.05;20.42;;;;;;;2.64;100.00;101238.66;5065901;28;20021;-61
2023/12/06 05:22:04;;;;;;;26.60;20.73;;;;;;;2.63;100.00;101235.19;5069982;28;20040;-61
2023/12/06 05:24:30;;;;;;;25.40;19.98;;;;;;;2.63;100.00;101237.81;5066154;28;20067;-61
2023/12/06 05:26:55;;;;;;;30.60;20.70;;;;;;;2.64;100.00;101242.13;5068681;28;20025;-61
2023/12/06 05:29:20;;;;;;;24.73;19.92;;;;;;;2.65;100.00;101246.47;5073051;28;20375;-61
2023/12/06 05:31:45;;;;;;;25.67;20.20;;;;;;;2.65;100.00;101240.34;5073754;28;20017;-61
2023/12/06 05:34:11;;;;;;;25.90;20.83;;;;;;;2.66;100.00;101239.47;5073254;28;20028;-61
2023/12/06 05:36:36;;;;;;;28.63;20.92;;;;;;;2.66;100.00;101245.56;5073242;28;20036;-61
2023/12/06 05:39:05;;;;;;;26.80;21.77;;;;;;;2.66;100.00;101250.78;5070420;28;20080;-61
2023/12/06 05:41:30;;;;;;;27.88;21.83;;;;;;;2.67;100.00;101243.81;5071308;28;20473;-60
2023/12/06 05:43:56;;;;;;;27.85;21.55;;;;;;;2.66;100.00;101245.56;5072523;28;20044;-60
2023/12/06 05:46:21;;;;;;;29.33;22.17;;;;;;;2.68;100.00;101251.63;5073119;28;20503;-59
2023/12/06 05:48:46;;;;;;;32.17;22.15;;;;;;;2.68;100.00;101246.38;5065527;28;20029;-60
2023/12/06 05:51:12;;;;;;;27.70;22.02;;;;;;;2.69;100.00;101247.22;5070486;28;20052;-61
2023/12/06 05:53:38;;;;;;;27.10;21.23;;;;;;;2.69;100.00;101248.06;5066838;28;20107;-61
2023/12/06 05:56:05;;;;;;;27.23;21.90;;;;;;;2.69;100.00;101253.31;5067560;28;20025;-61
2023/12/06 05:58:30;;;;;;;27.45;21.27;;;;;;;2.71;100.00;101248.84;5069227;28;20512;-61
2023/12/06 06:00:55;;;;;;;28.42;20.63;;;;;;;2.74;100.00;101261.00;5068284;28;20016;-60
2023/12/06 06:03:21;;;;;;;25.80;20.83;;;;;;;2.74;100.00;101261.84;5067298;28;20033;-61
2023/12/06 06:05:46;;;;;;;27.02;21.33;;;;;;;2.75;100.00;101265.34;5068113;28;20435;-61
2023/12/06 06:08:11;;;;;;;26.25;20.02;;;;;;;2.77;100.00;101269.63;5067327;28;20028;-61
2023/12/06 06:10:37;;;;;;;29.08;21.05;;;;;;;2.77;100.00;101269.63;5073187;28;20040;-61
2023/12/06 06:13:02;;;;;;;27.38;20.67;;;;;;;2.78;100.00;101270.47;5071150;28;20401;-61
2023/12/06 06:15:27;;;;;;;27.45;20.17;;;;;;;2.78;100.00;101271.34;5071358;28;20036;-61
2023/12/06 06:17:52;;;;;;;25.55;19.92;;;;;;;2.78;100.00;101266.09;5070216;28;20444;-61
2023/12/06 06:20:18;;;;;;;26.05;19.77;;;;;;;2.81;100.00;101269.50;5066699;28;20043;-61
2023/12/06 06:22:43;;;;;;;23.48;18.83;;;;;;;2.80;100.00;101281.78;5064524;28;20056;-61
2023/12/06 06:25:09;;;;;;;24.23;18.95;;;;;;;2.82;100.00;101276.47;5066408;28;20051;-61
2023/12/06 06:27:34;;;;;;;28.45;19.85;;;;;;;2.82;100.00;101289.59;5065553;28;20103;-61
2023/12/06 06:30:00;;;;;;;20.77;17.35;;;;;;;2.81;100.00;101290.50;5069512;28;20052;-62
2023/12/06 06:32:25;;;;;;;25.05;18.50;;;;;;;2.82;100.00;101289.59;5066524;28;20550;-61
2023/12/06 06:34:50;;;;;;;23.23;17.48;;;;;;;2.83;100.00;101294.78;5067863;28;20036;-61
2023/12/06 06:37:15;;;;;;;24.83;18.63;;;;;;;2.82;100.00;101300.09;5067369;28;20081;-61
2023/12/06 06:39:41;;;;;;;21.63;18.08;;;;;;;2.83;100.00;101304.41;5072136;28;20488;-61
2023/12/06 06:42:06;;;;;;;25.83;18.15;;;;;;;2.84;100.00;101306.97;5071692;28;20381;-62
2023/12/06 06:44:32;;;;;;;25.05;17.88;;;;;;;2.82;100.00;101307.97;5069484;28;20036;-61
2023/12/06 06:46:57;;;;;;;24.85;18.15;;;;;;;2.83;100.00;101313.16;5066444;28;20048;-61
2023/12/06 06:49:24;;;;;;;23.20;18.25;;;;;;;2.84;100.00;101306.13;5062672;28;20017;-61
2023/12/06 06:51:49;;;;;;;23.27;18.05;;;;;;;2.84;100.00;101312.22;5066310;28;20031;-61
2023/12/06 06:54:14;;;;;;;24.90;18.10;;;;;;;2.86;100.00;101310.38;5067404;28;20511;-61
2023/12/06 06:56:40;;;;;;;25.55;17.70;;;;;;;2.86;100.00;101309.53;5067705;28;20389;-61
2023/12/06 06:59:05;;;;;;;23.75;18.02;;;;;;;2.87;100.00;101313.88;5070807;28;20133;-61
2023/12/06 07:01:30;;;;;;;24.67;17.73;;;;;;;2.87;100.00;101306.03;5059307;28;20501;-61
2023/12/06 07:03:56;;;;;;;22.48;18.42;;;;;;;2.88;100.00;101310.34;5067480;28;20032;-62
2023/12/06 07:06:21;;;;;;;24.95;18.33;;;;;;;2.90;100.00;101316.41;5070995;28;20406;-62
2023/12/06 07:08:47;;;;;;;26.65;18.55;;;;;;;2.90;100.00;101313.78;5064899;28;20032;-62
2023/12/06 07:11:12;;;;;;;25.27;18.35;;;;;;;2.91;100.00;101312.84;5059864;28;20025;-62
2023/12/06 07:13:38;;;;;;;23.02;18.02;;;;;;;2.93;100.00;101321.50;5066406;28;20036;-62
2023/12/06 07:16:04;;;;;;;29.35;19.42;;;;;;;2.94;100.00;101325.88;5066420;28;20073;-62
2023/12/06 07:18:31;;;;;;;24.45;17.95;;;;;;;2.95;100.00;101319.72;5067839;28;20111;-61
2023/12/06 07:20:57;;;;;;;24.60;19.00;;;;;;;2.93;100.00;101322.38;5065614;28;20122;-62
2023/12/06 07:23:22;;;;;;;23.20;18.02;;;;;;;2.92;100.00;101330.31;5064026;28;20052;-61
2023/12/06 07:25:48;;;;;;;24.63;19.20;;;;;;;2.91;100.00;101320.72;5065045;28;20020;-61
2023/12/06 07:28:13;;;;;;;23.00;18.75;;;;;;;2.87;100.00;101322.59;5062900;28;20048;-61
2023/12/06 07:30:40;;;;;;;25.08;19.65;;;;;;;2.87;100.00;101332.25;5066383;28;20025;-61
2023/12/06 07:33:06;;;;;;;30.77;19.85;;;;;;;2.84;100.00;101325.34;5064555;28;20100;-62
2023/12/06 07:35:31;;;;;;;25.48;20.20;;;;;;;2.83;100.00;101336.75;5070343;28;20071;-61
2023/12/06 07:37:56;;;;;;;30.35;21.30;;;;;;;2.81;100.00;101338.56;5067073;28;20077;-62
2023/12/06 07:40:21;;;;;;;25.33;19.80;;;;;;;2.76;100.00;101349.25;5066292;28;20028;-61
2023/12/06 07:42:50;;;;;;;29.00;20.60;;;;;;;2.74;100.00;101344.94;5064155;28;20453;-61
2023/12/06 07:45:16;;;;;;;28.77;21.23;;;;;;;2.68;100.00;101343.41;5062713;28;20025;-62
2023/12/06 07:47:41;;;;;;;28.95;20.25;;;;;;;2.65;100.00;101354.00;5067897;28;20477;-61
2023/12/06 07:50:07;;;;;;;26.08;19.73;;;;;;;2.57;100.00;101351.66;5064366;28;20430;-61
2023/12/06 07:52:33;;;;;;;24.52;20.67;;;;;;;2.53;100.00;101352.69;5065716;28;20021;-61
2023/12/06 07:54:59;;;;;;;26.27;20.65;;;;;;;2.51;100.00;101354.47;5064832;28;20486;-61
2023/12/06 07:57:27;;;;;;;27.90;20.67;;;;;;;2.46;100.00;101363.41;5066867;28;20478;-61
2023/12/06 07:59:53;;;;;;;28.03;21.60;;;;;;;2.42;100.00;101360.06;5070194;28;20135;-61
2023/12/06 08:02:18;;;;;;;26.05;20.38;;;;;;;2.36;100.00;101362.88;5066127;28;20025;-62
2023/12/06 08:04:43;;;;;;;26.70;21.05;;;;;;;2.32;100.00;101363.91;5072825;28;20094;-62
2023/12/06 08:07:09;;;;;;;33.38;25.52;;;;;;;2.29;100.00;101372.72;5072745;28;20021;-62
2023/12/06 08:09:34;;;;;;;28.30;21.55;;;;;;;2.26;100.00;101371.97;5074761;28;20492;-62
2023/12/06 08:11:59;;;;;;;27.00;19.75;;;;;;;2.21;100.00;101364.25;5072482;28;20032;-61
2023/12/06 08:14:26;;;;;;;28.88;20.65;;;;;;;2.17;100.00;101376.59;5070737;28;20017;-61
2023/12/06 08:16:52;;;;;;;24.70;19.50;;;;;;;2.13;100.00;101385.47;5074770;28;20086;-62
2023/12/06 08:19:17;;;;;;;25.50;19.95;;;;;;;2.10;100.00;101377.72;5073367;28;20407;-61
2023/12/06 08:21:42;;;;;;;29.50;20.15;;;;;;;2.07;100.00;101387.44;5070420;28;20422;-62
2023/12/06 08:24:07;;;;;;;26.15;20.08;;;;;;;2.04;100.00;101383.16;5072198;28;20082;-61
2023/12/06 08:26:33;;;;;;;27.02;20.58;;;;;;;2.01;100.00;101381.47;5070282;28;20032;-61
2023/12/06 08:29:00;;;;;;;26.35;20.20;;;;;;;1.99;100.00;101391.16;5067754;28;20032;-61
2023/12/06 08:31:25;;;;;;;28.90;21.30;;;;;;;1.99;100.00;101396.38;5067965;28;20032;-61
2023/12/06 08:33:51;;;;;;;26.00;21.30;;;;;;;1.98;100.00;101393.81;5072263;28;20542;-62
2023/12/06 08:36:16;;;;;;;30.88;21.45;;;;;;;1.97;100.00;101387.72;5071301;28;20117;-61
2023/12/06 08:38:43;;;;;;;29.58;21.98;;;;;;;1.95;100.00;101388.66;5068454;28;20028;-62
2023/12/06 08:41:09;;;;;;;30.42;21.70;;;;;;;1.94;100.00;101389.59;5068617;28;20382;-60
2023/12/06 08:43:35;;;;;;;29.45;21.55;;;;;;;1.97;100.00;101402.59;5070878;28;20025;-61
2023/12/06 08:46:00;;;;;;;28.65;20.33;;;;;;;1.99;100.00;101413.88;5069690;28;20028;-61
2023/12/06 08:48:25;;;;;;;29.20;21.23;;;;;;;2.01;100.00;101407.66;5071468;28;20298;-61
2023/12/06 08:50:51;;;;;;;28.38;20.60;;;;;;;2.04;100.00;101404.09;5074768;28;20389;-61
2023/12/06 08:53:16;;;;;;;30.33;21.25;;;;;;;2.09;100.00;101411.81;5074499;28;20395;-61
2023/12/06 08:55:42;;;;;;;30.08;21.50;;;;;;;2.13;100.00;101413.44;5066138;28;20021;-61
2023/12/06 08:58:07;;;;;;;29.85;22.27;;;;;;;2.18;100.00;101424.63;5071319;28;20481;-61
2023/12/06 09:00:32;;;;;;;28.15;21.60;;;;;;;2.22;100.00;101428.88;5072692;28;20028;-60
2023/12/06 09:02:58;;;;;;;28.88;22.23;;;;;;;2.29;100.00;101434.78;5073855;28;20116;-60
2023/12/06 09:05:23;;;;;;;28.52;21.30;;;;;;;2.35;100.00;101435.44;5073720;28;20036;-60
2023/12/06 09:07:49;;;;;;;28.27;21.83;;;;;;;2.43;100.00;101435.16;5073610;28;20024;-61
2023/12/06 09:10:15;;;;;;;30.48;21.50;;;;;;;2.49;100.00;101431.50;5072870;28;20544;-61
2023/12/06 09:12:42;;;;;;;28.60;22.42;;;;;;;2.57;100.00;101434.72;5074139;28;20058;-61
2023/12/06 09:15:07;;;;;;;28.90;21.95;;;;;;;2.64;100.00;101433.59;5066397;28;20031;-61
2023/12/06 09:17:33;;;;;;;29.83;22.02;;;;;;;2.73;100.00;101437.66;5072353;28;20024;-61
2023/12/06 09:19:58;;;;;;;35.42;22.92;;;;;;;2.83;100.00;101435.56;5067355;28;20029;-61
2023/12/06 09:22:23;;;;;;;35.40;22.55;;;;;;;2.93;100.00;101435.22;5069603;28;20103;-61
2023/12/06 09:24:49;;;;;;;28.02;22.13;;;;;;;3.00;100.00;101432.34;5069972;28;20123;-61
2023/12/06 09:27:15;;;;;;;30.50;21.10;;;;;;;3.09;100.00;101438.13;5073249;28;20024;-62
2023/12/06 09:29:41;;;;;;;31.05;19.92;;;;;;;3.17;100.00;101442.28;5072846;28;20028;-61
2023/12/06 09:32:06;;;;;;;30.80;19.88;;;;;;;3.26;100.00;101437.53;5071317;28;20545;-61
2023/12/06 09:34:31;;;;;;;28.60;19.60;;;;;;;3.37;100.00;101444.19;5072014;28;20035;-61
2023/12/06 09:36:57;;;;;;;24.50;19.55;;;;;;;3.45;100.00;101444.75;5067091;28;20347;-61
2023/12/06 09:39:22;;;;;;;24.13;17.48;;;;;;;3.53;100.00;101447.94;5069249;28;20033;-61
2023/12/06 09:41:48;;;;;;;26.20;18.20;;;;;;;3.64;100.00;101455.41;5067558;28;20452;-61
2023/12/06 09:44:17;;;;;;;26.55;18.45;;;;;;;3.69;100.00;101456.09;5068543;28;20089;-61
2023/12/06 09:46:48;;;;;;;24.30;17.77;;;;;;;3.74;100.00;101463.81;5067760;28;20076;-62
2023/12/06 09:49:13;;;;;;;22.48;16.88;;;;;;;3.80;100.00;101467.06;5072951;28;20017;-61
2023/12/06 09:51:38;;;;;;;24.73;16.27;;;;;;;3.85;100.00;101466.88;5072351;28;20423;-61
2023/12/06 09:54:03;;;;;;;25.55;17.58;;;;;;;3.87;100.00;101465.03;5068440;28;20029;-61
2023/12/06 09:56:33;;;;;;;22.27;16.38;;;;;;;3.91;100.00;101476.28;5074165;28;20032;-62
2023/12/06 09:58:58;;;;;;;23.63;16.80;;;;;;;3.97;100.00;101479.53;5067120;28;20420;-61
2023/12/06 10:01:23;;;;;;;20.70;16.17;;;;;;;3.99;100.00;101480.31;5066471;28;20020;-61
2023/12/06 10:03:49;;;;;;;21.67;15.77;;;;;;;4.02;100.00;101482.84;5067220;28;20064;-62
2023/12/06 10:06:17;;;;;;;23.60;15.68;;;;;;;4.06;100.00;101480.94;5066249;28;20074;-61
2023/12/06 10:08:48;;;;;;;26.25;16.27;;;;;;;4.11;100.00;101481.63;5069310;28;20107;-61
2023/12/06 10:11:13;;;;;;;27.40;17.40;;;;;;;4.17;100.00;101476.13;5071351;28;20480;-61
2023/12/06 10:13:40;;;;;;;24.45;16.10;;;;;;;4.25;100.00;101478.47;5071420;28;20027;-61
2023/12/06 10:16:17;;;;;;;24.38;15.00;;;;;;;4.31;100.00;101480.81;5068165;28;20028;-62
2023/12/06 10:18:46;;;;;;;21.27;16.88;;;;;;;4.39;100.00;101480.53;5069083;28;20066;-62
2023/12/06 10:21:12;;;;;;;21.23;14.10;;;;;;;4.41;100.00;101486.56;5065184;28;20101;-61
2023/12/06 10:23:37;;;;;;;24.38;15.27;;;;;;;4.45;100.00;101475.88;5069361;28;20486;-61
2023/12/06 10:26:05;;;;;;;22.30;14.20;;;;;;;4.50;100.00;101477.47;5070594;28;20044;-61
2023/12/06 10:28:34;;;;;;;23.15;14.48;;;;;;;4.51;100.00;101482.66;5069683;28;20090;-61
2023/12/06 10:31:03;;;;;;;19.75;13.40;;;;;;;4.56;100.00;101483.34;5063217;28;20101;-61
2023/12/06 10:33:31;;;;;;;;;;;;;;;4.64;100.00;101483.84;5068301;28;20051;-61
2023/12/06 10:36:01;;;;;;;22.38;14.13;;;;;;;4.62;100.00;101476.94;5064497;28;19916;-62
2023/12/06 10:38:30;;;;;;;19.83;12.50;;;;;;;4.64;100.00;101481.22;5075872;28;20465;-61
2023/12/06 10:40:58;;;;;;;21.38;12.85;;;;;;;4.66;100.00;101475.91;5068222;28;20075;-61
2023/12/06 10:43:26;;;;;;;17.05;12.55;;;;;;;4.68;100.00;101478.47;5073213;28;20134;-62
2023/12/06 10:45:51;;;;;;;21.45;13.32;;;;;;;4.70;100.00;101474.88;5069101;28;20036;-62
2023/12/06 10:48:17;;;;;;;20.42;13.10;;;;;;;4.71;100.00;101470.44;5068173;28;20489;-62
2023/12/06 10:50:43;;;;;;;21.75;14.07;;;;;;;4.71;100.00;101467.81;5070992;28;20036;-62
2023/12/06 10:53:13;;;;;;;22.83;13.73;;;;;;;4.73;100.00;101476.50;5067540;28;21421;-62
2023/12/06 10:55:41;;;;;;;24.77;14.82;;;;;;;4.76;100.00;101471.97;5065270;28;20035;-62
2023/12/06 10:58:07;;;;;;;24.67;15.45;;;;;;;4.79;100.00;101470.97;5069741;28;20025;-62
2023/12/06 11:00:33;;;;;;;23.67;15.65;;;;;;;4.78;100.00;101475.41;5063452;28;20394;-61
2023/12/06 11:02:59;;;;;;;27.95;16.05;;;;;;;4.83;100.00;101469.94;5065544;28;20032;-62